createdAt,value
2022-12-16T00:00:08.678Z,94855.00
2022-12-16T00:02:36.016Z,94875.72
2022-12-16T00:05:02.974Z,94857.22
2022-12-16T00:07:29.732Z,94884.59
2022-12-16T00:09:56.374Z,94880.13
2022-12-16T00:12:23.181Z,94873.66
2022-12-16T00:14:50.090Z,94841.25
2022-12-16T00:17:17.217Z,94835.16
2022-12-16T00:19:43.911Z,94861.03
2022-12-16T00:22:10.638Z,94863.13
2022-12-16T00:24:37.585Z,94872.72
2022-12-16T00:27:04.454Z,94860.38
2022-12-16T00:29:31.143Z,94846.16
2022-12-16T00:31:57.831Z,94857.63
2022-12-16T00:34:24.561Z,94868.16
2022-12-16T00:36:51.284Z,94872.81
2022-12-16T00:39:18.046Z,94875.16
2022-12-16T00:41:44.821Z,94790.34
2022-12-16T00:44:11.510Z,94863.91
2022-12-16T00:46:38.127Z,94863.75
2022-12-16T00:49:04.885Z,94849.00
2022-12-16T00:51:31.612Z,94865.81
2022-12-16T00:53:58.239Z,94860.75
2022-12-16T00:56:25.222Z,94863.03
2022-12-16T00:58:52.031Z,94865.53
2022-12-16T01:01:19.521Z,94852.75
2022-12-16T01:03:46.483Z,94874.25
2022-12-16T01:06:16.263Z,94858.88
2022-12-16T01:08:48.901Z,94845.97
2022-12-16T01:11:19.965Z,94869.81
2022-12-16T01:13:50.994Z,94871.69
2022-12-16T01:16:19.003Z,94873.97
2022-12-16T01:18:45.925Z,94880.50
2022-12-16T01:21:14.767Z,94873.28
2022-12-16T01:23:41.514Z,94875.88
2022-12-16T01:26:10.638Z,94850.16
2022-12-16T01:28:37.289Z,94861.44
2022-12-16T01:31:04.028Z,94848.03
2022-12-16T01:33:33.183Z,94832.09
2022-12-16T01:36:06.132Z,94860.66
2022-12-16T01:38:33.400Z,94835.41
2022-12-16T01:41:00.284Z,94848.03
2022-12-16T01:43:30.094Z,94841.59
2022-12-16T01:46:06.424Z,94806.44
2022-12-16T01:48:41.228Z,94839.59
2022-12-16T01:51:38.437Z,94834.06
2022-12-16T01:54:05.012Z,94842.28
2022-12-16T01:56:34.918Z,94826.38
2022-12-16T01:59:03.332Z,94855.31
2022-12-16T02:01:30.152Z,94815.25
2022-12-16T02:04:03.406Z,94852.41
2022-12-16T02:06:31.597Z,94793.53
2022-12-16T02:09:00.989Z,94824.97
2022-12-16T02:11:36.754Z,94822.53
2022-12-16T02:14:31.690Z,94810.97
2022-12-16T02:17:21.589Z,94828.72
2022-12-16T02:20:12.627Z,94801.16
2022-12-16T02:22:45.024Z,94820.63
2022-12-16T02:25:17.599Z,94815.59
2022-12-16T02:27:58.920Z,94831.25
2022-12-16T02:30:31.708Z,94823.69
2022-12-16T02:33:16.428Z,94815.91
2022-12-16T02:36:06.505Z,94812.56
2022-12-16T02:38:56.422Z,94833.94
2022-12-16T02:41:42.871Z,94820.13
2022-12-16T02:44:11.432Z,94814.81
2022-12-16T02:46:43.941Z,94823.97
2022-12-16T02:49:13.578Z,94840.63
2022-12-16T02:51:40.762Z,94791.44
2022-12-16T02:54:09.484Z,94846.50
2022-12-16T02:56:44.988Z,94851.94
2022-12-16T02:59:28.129Z,94852.13
2022-12-16T03:02:20.067Z,94869.56
2022-12-16T03:04:57.956Z,94851.19
2022-12-16T03:07:27.246Z,94846.09
2022-12-16T03:09:55.563Z,94832.59
2022-12-16T03:12:23.183Z,94814.34
2022-12-16T03:14:53.690Z,94806.16
2022-12-16T03:17:24.430Z,94817.56
2022-12-16T03:19:57.421Z,94815.16
2022-12-16T03:22:29.247Z,94805.38
2022-12-16T03:24:56.535Z,94810.00
2022-12-16T03:27:23.712Z,94810.41
2022-12-16T03:30:11.313Z,94783.63
2022-12-16T03:32:51.887Z,94822.09
2022-12-16T03:35:37.925Z,94846.47
2022-12-16T03:38:08.709Z,94845.13
2022-12-16T03:40:37.056Z,94836.00
2022-12-16T03:43:04.779Z,94801.97
2022-12-16T03:45:37.782Z,94825.75
2022-12-16T03:48:07.382Z,94809.41
2022-12-16T03:50:35.477Z,94835.00
2022-12-16T03:53:03.256Z,94839.97
2022-12-16T03:55:30.256Z,94829.38
2022-12-16T03:57:57.333Z,94860.34
2022-12-16T04:00:25.555Z,94849.53
2022-12-16T04:02:53.112Z,94811.56
2022-12-16T04:05:20.149Z,94822.56
2022-12-16T04:07:46.951Z,94847.06
2022-12-16T04:10:13.574Z,94839.44
2022-12-16T04:12:58.867Z,94840.97
2022-12-16T04:15:44.514Z,94812.63
2022-12-16T04:18:35.679Z,94820.19
2022-12-16T04:21:21.701Z,94812.72
2022-12-16T04:24:14.135Z,94846.78
2022-12-16T04:26:59.579Z,94837.91
2022-12-16T04:29:26.482Z,94842.72
2022-12-16T04:31:53.167Z,94833.22
2022-12-16T04:34:27.492Z,94839.81
2022-12-16T04:37:20.671Z,94841.97
2022-12-16T04:40:05.969Z,94824.38
2022-12-16T04:42:51.526Z,94818.69
2022-12-16T04:45:37.005Z,94815.84
2022-12-16T04:48:22.902Z,94822.47
2022-12-16T04:51:08.345Z,94830.16
2022-12-16T04:53:53.436Z,94819.81
2022-12-16T04:56:38.609Z,94819.88
2022-12-16T04:59:23.788Z,94829.94
2022-12-16T05:02:09.107Z,94814.91
2022-12-16T05:04:54.585Z,94825.03
2022-12-16T05:07:40.039Z,94812.69
2022-12-16T05:10:26.396Z,94808.59
2022-12-16T05:13:14.506Z,94819.00
2022-12-16T05:15:59.970Z,94844.69
2022-12-16T05:18:45.348Z,94829.06
2022-12-16T05:21:30.705Z,94824.69
2022-12-16T05:24:15.975Z,94838.50
2022-12-16T05:27:01.263Z,94855.94
2022-12-16T05:29:46.611Z,94853.75
2022-12-16T05:32:32.189Z,94834.53
2022-12-16T05:35:17.396Z,94873.84
2022-12-16T05:38:02.904Z,94874.97
2022-12-16T05:40:48.407Z,94873.00
2022-12-16T05:43:34.153Z,94865.53
2022-12-16T05:46:19.985Z,94837.41
2022-12-16T05:49:05.205Z,94852.41
2022-12-16T05:51:50.650Z,94852.13
2022-12-16T05:54:35.634Z,94884.94
2022-12-16T05:57:21.066Z,94862.03
2022-12-16T06:00:06.568Z,94881.13
2022-12-16T06:02:52.107Z,94901.88
2022-12-16T06:05:37.416Z,94917.78
2022-12-16T06:08:22.737Z,94912.81
2022-12-16T06:11:08.317Z,94928.44
2022-12-16T06:13:53.472Z,94902.63
2022-12-16T06:16:38.858Z,94901.59
2022-12-16T06:19:24.427Z,94906.75
2022-12-16T06:22:09.525Z,94912.75
2022-12-16T06:24:54.454Z,94912.56
2022-12-16T06:27:39.963Z,94912.81
2022-12-16T06:30:26.076Z,94916.34
2022-12-16T06:33:11.509Z,94906.84
2022-12-16T06:35:57.149Z,94906.00
2022-12-16T06:38:42.689Z,94909.16
2022-12-16T06:41:27.814Z,94911.56
2022-12-16T06:44:13.240Z,94898.06
2022-12-16T06:46:58.774Z,94883.22
2022-12-16T06:49:43.983Z,94892.72
2022-12-16T06:52:29.021Z,94892.72
2022-12-16T06:55:14.929Z,94890.94
2022-12-16T06:58:00.182Z,94911.75
2022-12-16T07:00:45.561Z,94914.56
2022-12-16T07:03:35.610Z,94912.78
2022-12-16T07:06:30.192Z,94907.47
2022-12-16T07:09:15.488Z,94915.00
2022-12-16T07:12:01.078Z,94905.31
2022-12-16T07:14:46.441Z,94913.03
2022-12-16T07:17:31.741Z,94911.94
2022-12-16T07:20:16.939Z,94903.44
2022-12-16T07:23:11.896Z,94902.00
2022-12-16T07:26:01.194Z,94897.56
2022-12-16T07:28:46.593Z,94901.16
2022-12-16T07:31:32.182Z,94925.06
2022-12-16T07:34:17.441Z,94928.00
2022-12-16T07:37:02.719Z,94932.53
2022-12-16T07:39:52.815Z,94923.78
2022-12-16T07:42:39.837Z,94914.59
2022-12-16T07:45:25.618Z,94918.72
2022-12-16T07:48:10.901Z,94927.59
2022-12-16T07:50:56.153Z,94903.03
2022-12-16T07:53:41.496Z,94934.91
2022-12-16T07:56:41.196Z,94912.03
2022-12-16T07:59:26.723Z,94917.88
2022-12-16T08:02:12.081Z,94916.09
2022-12-16T08:04:57.595Z,94944.19
2022-12-16T08:07:43.029Z,94914.47
2022-12-16T08:10:28.825Z,94941.56
2022-12-16T08:13:25.517Z,94919.50
2022-12-16T08:16:11.457Z,94900.41
2022-12-16T08:18:57.026Z,94927.50
2022-12-16T08:21:42.572Z,94924.09
2022-12-16T08:24:27.804Z,94918.69
2022-12-16T08:27:13.041Z,94914.03
2022-12-16T08:29:58.155Z,94938.41
2022-12-16T08:32:43.755Z,94927.88
2022-12-16T08:35:28.898Z,94900.53
2022-12-16T08:38:15.004Z,94913.59
2022-12-16T08:41:03.792Z,94902.44
2022-12-16T08:43:51.375Z,94892.19
2022-12-16T08:46:37.214Z,94876.75
2022-12-16T08:49:22.885Z,94894.47
2022-12-16T08:52:08.160Z,94885.63
2022-12-16T08:55:04.621Z,94893.66
2022-12-16T08:57:50.115Z,94889.47
2022-12-16T09:00:35.367Z,94889.53
2022-12-16T09:03:20.992Z,94868.84
2022-12-16T09:06:06.660Z,94878.59
2022-12-16T09:08:51.730Z,94866.06
2022-12-16T09:11:37.074Z,94876.56
2022-12-16T09:14:22.521Z,94863.94
2022-12-16T09:17:07.661Z,94859.22
2022-12-16T09:19:54.085Z,94843.97
2022-12-16T09:22:41.016Z,94847.53
2022-12-16T09:25:26.352Z,94820.31
2022-12-16T09:28:11.704Z,94818.19
2022-12-16T09:30:57.022Z,94823.88
2022-12-16T09:33:42.622Z,94820.41
2022-12-16T09:36:28.097Z,94819.38
2022-12-16T09:39:13.236Z,94824.97
2022-12-16T09:42:14.576Z,94827.13
2022-12-16T09:45:11.442Z,94827.59
2022-12-16T09:48:19.620Z,94813.56
2022-12-16T09:51:05.417Z,94814.34
2022-12-16T09:54:02.755Z,94785.19
2022-12-16T09:56:51.723Z,94803.56
2022-12-16T09:59:52.687Z,94791.56
2022-12-16T10:02:39.774Z,94828.50
2022-12-16T10:05:43.934Z,94819.13
2022-12-16T10:08:44.790Z,94827.91
2022-12-16T10:11:52.844Z,94801.22
2022-12-16T10:14:44.231Z,94783.31
2022-12-16T10:17:36.370Z,94803.69
2022-12-16T10:20:49.066Z,94784.69
2022-12-16T10:24:03.535Z,94787.09
2022-12-16T10:27:22.186Z,94781.03
2022-12-16T10:30:07.407Z,94777.09
2022-12-16T10:33:19.258Z,94771.78
2022-12-16T10:36:13.332Z,94765.72
2022-12-16T10:39:27.509Z,94791.97
2022-12-16T10:42:13.345Z,94774.91
2022-12-16T10:45:21.480Z,94773.69
2022-12-16T10:48:06.819Z,94754.88
2022-12-16T10:50:52.234Z,94770.59
2022-12-16T10:53:44.934Z,94766.69
2022-12-16T10:57:17.102Z,94781.63
2022-12-16T11:00:02.498Z,94768.19
2022-12-16T11:02:48.357Z,94766.28
2022-12-16T11:05:53.934Z,94771.16
2022-12-16T11:08:48.885Z,94780.75
2022-12-16T11:11:44.797Z,94775.63
2022-12-16T11:15:12.594Z,94764.91
2022-12-16T11:17:56.589Z,94765.59
2022-12-16T11:20:43.973Z,94771.00
2022-12-16T11:23:32.444Z,94760.28
2022-12-16T11:26:37.232Z,94744.38
2022-12-16T11:29:23.933Z,94757.06
2022-12-16T11:32:32.753Z,94755.19
2022-12-16T11:35:20.488Z,94745.69
2022-12-16T11:38:08.483Z,94750.19
2022-12-16T11:40:55.621Z,94737.88
2022-12-16T11:43:42.559Z,94725.94
2022-12-16T11:46:32.972Z,94732.72
2022-12-16T11:49:25.272Z,94715.31
2022-12-16T11:52:37.641Z,94733.75
2022-12-16T11:56:05.426Z,94721.22
2022-12-16T11:59:03.210Z,94715.44
2022-12-16T12:02:11.473Z,94714.97
2022-12-16T12:04:56.622Z,94714.22
2022-12-16T12:07:57.195Z,94695.75
2022-12-16T12:11:21.788Z,94705.84
2022-12-16T12:14:25.649Z,94697.75
2022-12-16T12:17:13.877Z,94710.53
2022-12-16T12:20:17.716Z,94716.59
2022-12-16T12:23:02.753Z,94702.38
2022-12-16T12:26:38.141Z,94712.16
2022-12-16T12:29:23.042Z,94699.84
2022-12-16T12:32:17.847Z,94684.41
2022-12-16T12:35:18.809Z,94678.50
2022-12-16T12:38:24.092Z,94693.59
2022-12-16T12:41:11.999Z,94692.94
2022-12-16T12:44:21.508Z,94701.78
2022-12-16T12:47:11.789Z,94675.81
2022-12-16T12:50:03.228Z,94692.56
2022-12-16T12:53:16.500Z,94696.06
2022-12-16T12:56:40.227Z,94700.88
2022-12-16T12:59:38.595Z,94695.19
2022-12-16T13:02:32.050Z,94688.25
2022-12-16T13:05:37.913Z,94662.13
2022-12-16T13:08:56.997Z,94683.88
2022-12-16T13:11:42.853Z,94679.22
2022-12-16T13:14:49.999Z,94680.47
2022-12-16T13:17:39.873Z,94688.50
2022-12-16T13:20:51.472Z,94679.69
2022-12-16T13:23:46.042Z,94698.31
2022-12-16T13:26:37.723Z,94678.66
2022-12-16T13:29:43.113Z,94696.16
2022-12-16T13:32:28.251Z,94689.34
2022-12-16T13:35:24.980Z,94680.84
2022-12-16T13:38:15.947Z,94696.38
2022-12-16T13:41:22.453Z,94688.25
2022-12-16T13:44:14.676Z,94690.81
2022-12-16T13:47:05.322Z,94685.84
2022-12-16T13:50:10.048Z,94681.78
2022-12-16T13:53:19.182Z,94697.13
2022-12-16T13:56:10.493Z,94713.19
2022-12-16T13:59:06.286Z,94708.22
2022-12-16T14:01:57.109Z,94732.22
2022-12-16T14:04:48.550Z,94708.44
2022-12-16T14:07:37.045Z,94726.03
2022-12-16T14:10:23.197Z,94704.44
2022-12-16T14:13:26.210Z,94735.94
2022-12-16T14:16:24.946Z,94706.22
2022-12-16T14:19:21.413Z,94739.63
2022-12-16T14:22:18.732Z,94729.78
2022-12-16T14:25:04.466Z,94744.69
2022-12-16T14:27:53.706Z,94740.16
2022-12-16T14:30:44.385Z,94751.13
2022-12-16T14:33:46.567Z,94735.53
2022-12-16T14:36:40.714Z,94731.97
2022-12-16T14:39:49.277Z,94755.28
2022-12-16T14:42:37.446Z,94723.22
2022-12-16T14:45:24.425Z,94736.63
2022-12-16T14:48:09.497Z,94728.19
2022-12-16T14:50:55.049Z,94729.19
2022-12-16T14:53:42.984Z,94724.59
2022-12-16T14:56:39.814Z,94716.16
2022-12-16T14:59:36.213Z,94730.47
2022-12-16T15:02:47.017Z,94744.69
2022-12-16T15:05:32.938Z,94700.78
2022-12-16T15:08:19.118Z,94742.44
2022-12-16T15:11:04.478Z,94721.97
2022-12-16T15:13:50.829Z,94744.84
2022-12-16T15:16:44.700Z,94730.06
2022-12-16T15:19:39.832Z,94729.25
2022-12-16T15:22:25.310Z,94746.81
2022-12-16T15:25:10.398Z,94747.28
2022-12-16T15:27:57.262Z,94742.25
2022-12-16T15:31:00.261Z,94761.59
2022-12-16T15:33:51.025Z,94732.78
2022-12-16T15:36:49.276Z,94756.91
2022-12-16T15:39:37.636Z,94726.63
2022-12-16T15:42:23.736Z,94752.25
2022-12-16T15:45:10.404Z,94771.25
2022-12-16T15:47:57.494Z,94768.09
2022-12-16T15:50:46.462Z,94778.00
2022-12-16T15:53:52.292Z,94771.47
2022-12-16T15:56:46.743Z,94762.25
2022-12-16T15:59:44.303Z,94777.25
2022-12-16T16:02:37.024Z,94769.69
2022-12-16T16:05:43.928Z,94744.59
2022-12-16T16:08:29.894Z,94786.41
2022-12-16T16:11:15.568Z,94756.59
2022-12-16T16:14:07.184Z,94777.19
2022-12-16T16:16:55.150Z,94781.38
2022-12-16T16:19:44.187Z,94747.72
2022-12-16T16:22:30.812Z,94770.25
2022-12-16T16:25:16.621Z,94785.88
2022-12-16T16:28:01.902Z,94757.88
2022-12-16T16:30:47.459Z,94782.09
2022-12-16T16:33:33.831Z,94808.00
2022-12-16T16:36:19.320Z,94779.31
2022-12-16T16:39:04.590Z,94807.28
2022-12-16T16:41:50.221Z,94789.50
2022-12-16T16:44:35.489Z,94785.88
2022-12-16T16:47:21.108Z,94781.66
2022-12-16T16:50:06.907Z,94766.69
2022-12-16T16:52:52.459Z,94817.28
2022-12-16T16:55:40.550Z,94755.97
2022-12-16T16:58:31.823Z,94765.66
2022-12-16T17:01:17.116Z,94775.03
2022-12-16T17:04:02.831Z,94801.56
2022-12-16T17:06:48.412Z,94788.91
2022-12-16T17:09:33.650Z,94771.66
2022-12-16T17:12:18.862Z,94793.25
2022-12-16T17:15:06.685Z,94798.84
2022-12-16T17:17:51.853Z,94767.75
2022-12-16T17:20:37.049Z,94796.75
2022-12-16T17:23:22.754Z,94797.34
2022-12-16T17:26:08.141Z,94769.56
2022-12-16T17:28:53.912Z,94782.53
2022-12-16T17:31:39.205Z,94777.25
2022-12-16T17:34:24.740Z,94800.22
2022-12-16T17:37:10.287Z,94781.03
2022-12-16T17:39:55.701Z,94807.16
2022-12-16T17:42:46.323Z,94785.88
2022-12-16T17:45:32.173Z,94793.72
2022-12-16T17:48:17.455Z,94809.91
2022-12-16T17:51:02.605Z,94773.94
2022-12-16T17:53:51.677Z,94814.13
2022-12-16T17:56:38.932Z,94805.97
2022-12-16T17:59:24.167Z,94788.00
2022-12-16T18:02:09.406Z,94802.31
2022-12-16T18:04:54.934Z,94769.81
2022-12-16T18:07:40.345Z,94823.19
2022-12-16T18:10:27.711Z,94786.50
2022-12-16T18:13:14.729Z,94804.47
2022-12-16T18:16:20.287Z,94784.47
2022-12-16T18:19:09.314Z,94793.69
2022-12-16T18:21:54.492Z,94800.81
2022-12-16T18:24:45.141Z,94796.53
2022-12-16T18:27:33.321Z,94806.19
2022-12-16T18:30:18.483Z,94830.63
2022-12-16T18:33:03.839Z,94802.16
2022-12-16T18:35:49.359Z,94795.78
2022-12-16T18:38:34.823Z,94837.00
2022-12-16T18:41:26.101Z,94808.88
2022-12-16T18:44:14.526Z,94800.25
2022-12-16T18:47:01.373Z,94787.59
2022-12-16T18:49:46.878Z,94816.38
2022-12-16T18:52:32.681Z,94845.66
2022-12-16T18:55:18.804Z,94834.94
2022-12-16T18:58:12.262Z,94869.34
2022-12-16T19:01:06.686Z,94832.25
2022-12-16T19:04:11.892Z,94773.72
2022-12-16T19:06:57.327Z,94826.09
2022-12-16T19:09:42.868Z,94816.06
2022-12-16T19:12:28.438Z,94834.00
2022-12-16T19:15:13.668Z,94807.53
2022-12-16T19:17:58.772Z,94828.72
2022-12-16T19:20:43.907Z,94806.81
2022-12-16T19:23:33.279Z,94877.63
2022-12-16T19:26:19.944Z,94843.41
2022-12-16T19:29:05.105Z,94871.16
2022-12-16T19:31:50.609Z,94851.50
2022-12-16T19:34:37.370Z,94880.28
2022-12-16T19:37:22.880Z,94865.03
2022-12-16T19:40:08.291Z,94886.66
2022-12-16T19:42:56.021Z,94873.78
2022-12-16T19:45:41.243Z,94814.63
2022-12-16T19:48:26.758Z,94888.84
2022-12-16T19:51:33.231Z,94885.69
2022-12-16T19:54:18.685Z,94888.72
2022-12-16T19:57:04.428Z,94890.38
2022-12-16T19:59:49.498Z,94854.22
2022-12-16T20:02:35.045Z,94886.47
2022-12-16T20:05:20.924Z,94866.72
2022-12-16T20:08:06.406Z,94821.66
2022-12-16T20:10:52.007Z,94867.22
2022-12-16T20:13:37.193Z,94874.31
2022-12-16T20:16:28.040Z,94860.00
2022-12-16T20:19:14.325Z,94864.53
2022-12-16T20:22:06.276Z,94817.13
2022-12-16T20:25:05.884Z,94872.22
2022-12-16T20:27:51.171Z,94858.84
2022-12-16T20:30:37.145Z,94874.06
2022-12-16T20:33:22.463Z,94891.91
2022-12-16T20:36:33.986Z,94867.78
2022-12-16T20:39:19.205Z,94887.28
2022-12-16T20:42:04.487Z,94871.06
2022-12-16T20:44:49.563Z,94848.44
2022-12-16T20:47:34.761Z,94881.41
2022-12-16T20:50:19.879Z,94878.31
2022-12-16T20:53:05.200Z,94892.03
2022-12-16T20:55:50.411Z,94864.41
2022-12-16T20:58:38.684Z,94884.78
2022-12-16T21:01:24.895Z,94872.28
2022-12-16T21:04:10.165Z,94862.44
2022-12-16T21:06:56.168Z,94905.47
2022-12-16T21:09:41.824Z,94876.97
2022-12-16T21:12:26.995Z,94894.72
2022-12-16T21:15:29.175Z,94901.31
2022-12-16T21:18:19.037Z,94915.28
2022-12-16T21:21:12.741Z,94884.63
2022-12-16T21:23:58.566Z,94857.09
2022-12-16T21:26:44.193Z,94877.03
2022-12-16T21:29:29.783Z,94885.41
2022-12-16T21:32:15.160Z,94889.03
2022-12-16T21:35:00.634Z,94882.06
2022-12-16T21:37:45.992Z,94843.81
2022-12-16T21:40:31.362Z,94825.84
2022-12-16T21:43:16.908Z,94874.25
2022-12-16T21:46:02.262Z,94887.66
2022-12-16T21:48:47.631Z,94885.88
2022-12-16T21:51:32.678Z,94881.78
2022-12-16T21:54:21.076Z,94825.06
2022-12-16T21:57:06.365Z,94883.59
2022-12-16T21:59:51.816Z,94874.53
2022-12-16T22:02:37.266Z,94864.19
2022-12-16T22:05:22.932Z,94851.59
2022-12-16T22:08:08.265Z,94859.28
2022-12-16T22:10:53.777Z,94843.63
2022-12-16T22:13:41.946Z,94852.56
2022-12-16T22:16:27.716Z,94853.34
2022-12-16T22:19:14.021Z,94878.28
2022-12-16T22:21:59.672Z,94880.44
2022-12-16T22:24:45.393Z,94878.28
2022-12-16T22:27:30.513Z,94881.63
2022-12-16T22:30:15.926Z,94881.19
2022-12-16T22:33:01.096Z,94878.38
2022-12-16T22:35:46.286Z,94870.53
2022-12-16T22:38:31.949Z,94865.00
2022-12-16T22:41:18.467Z,94848.91
2022-12-16T22:44:03.957Z,94850.00
2022-12-16T22:46:49.681Z,94856.84
2022-12-16T22:49:34.846Z,94849.69
2022-12-16T22:52:20.806Z,94863.75
2022-12-16T22:55:05.875Z,94880.53
2022-12-16T22:57:53.461Z,94852.28
2022-12-16T23:00:39.241Z,94845.22
2022-12-16T23:03:24.423Z,94828.78
2022-12-16T23:06:09.627Z,94846.97
2022-12-16T23:08:54.781Z,94837.75
2022-12-16T23:11:44.791Z,94831.94
2022-12-16T23:14:30.309Z,94847.19
2022-12-16T23:17:15.739Z,94843.41
2022-12-16T23:20:00.918Z,94833.66
2022-12-16T23:22:46.350Z,94845.13
2022-12-16T23:25:31.794Z,94801.09
2022-12-16T23:28:17.015Z,94833.44
2022-12-16T23:31:11.816Z,94829.22
2022-12-16T23:33:56.996Z,94797.31
2022-12-16T23:36:43.377Z,94806.94
2022-12-16T23:39:28.819Z,94814.72
2022-12-16T23:42:14.266Z,94816.97
2022-12-16T23:44:59.541Z,94799.78
2022-12-16T23:47:45.376Z,94806.72
2022-12-16T23:50:30.287Z,94795.16
2022-12-16T23:53:29.528Z,94802.06
2022-12-16T23:56:20.226Z,94804.56
2022-12-16T23:59:08.842Z,94789.84
